createdAt,value
2023-02-25T00:01:07.822Z,1.52
2023-02-25T00:03:38.097Z,1.40
2023-02-25T00:06:05.192Z,1.60
2023-02-25T00:08:32.249Z,1.70
2023-02-25T00:10:59.410Z,1.23
2023-02-25T00:13:26.386Z,1.60
2023-02-25T00:15:53.340Z,1.63
2023-02-25T00:18:20.263Z,1.60
2023-02-25T00:20:47.144Z,1.45
2023-02-25T00:23:14.060Z,1.60
2023-02-25T00:25:40.991Z,1.70
2023-02-25T00:28:08.460Z,1.45
2023-02-25T00:30:36.828Z,1.88
2023-02-25T00:33:03.850Z,2.00
2023-02-25T00:35:30.761Z,1.60
2023-02-25T00:38:14.810Z,1.20
2023-02-25T00:40:42.401Z,1.65
2023-02-25T00:43:09.450Z,1.65
2023-02-25T00:45:36.400Z,1.75
2023-02-25T00:48:03.328Z,1.83
2023-02-25T00:50:30.235Z,1.67
2023-02-25T00:52:57.176Z,1.75
2023-02-25T00:55:24.108Z,2.03
2023-02-25T00:57:51.037Z,1.55
2023-02-25T01:00:18.258Z,1.98
2023-02-25T01:02:45.262Z,2.00
2023-02-25T01:05:12.167Z,1.60
2023-02-25T01:07:39.098Z,1.88
2023-02-25T01:10:06.011Z,1.60
2023-02-25T01:12:32.937Z,1.80
2023-02-25T01:14:59.835Z,1.80
2023-02-25T01:17:26.755Z,2.25
2023-02-25T01:19:53.656Z,1.92
2023-02-25T01:22:20.588Z,2.10
2023-02-25T01:24:47.500Z,2.00
2023-02-25T01:27:14.403Z,1.80
2023-02-25T01:29:41.302Z,2.00
2023-02-25T01:32:08.350Z,1.80
2023-02-25T01:34:35.340Z,1.63
2023-02-25T01:37:02.279Z,1.60
2023-02-25T01:39:29.163Z,1.90
2023-02-25T01:41:56.055Z,1.75
2023-02-25T01:44:22.976Z,1.67
2023-02-25T01:46:49.920Z,1.90
2023-02-25T01:49:16.895Z,1.65
2023-02-25T01:51:44.700Z,1.70
2023-02-25T01:54:12.667Z,2.10
2023-02-25T01:56:41.058Z,1.90
2023-02-25T01:59:08.960Z,1.75
2023-02-25T02:01:35.928Z,2.17
2023-02-25T02:04:12.921Z,1.85
2023-02-25T02:06:42.412Z,1.73
2023-02-25T02:09:09.592Z,1.88
2023-02-25T02:11:36.838Z,2.20
2023-02-25T02:14:04.799Z,2.10
2023-02-25T02:16:35.383Z,1.77
2023-02-25T02:19:02.337Z,2.28
2023-02-25T02:21:29.241Z,2.40
2023-02-25T02:23:56.385Z,2.00
2023-02-25T02:26:23.895Z,2.25
2023-02-25T02:28:51.095Z,1.88
2023-02-25T02:31:18.139Z,2.10
2023-02-25T02:33:45.213Z,2.10
2023-02-25T02:36:12.375Z,2.30
2023-02-25T02:38:39.277Z,2.50
2023-02-25T02:41:06.193Z,2.20
2023-02-25T02:43:37.660Z,2.50
2023-02-25T02:46:04.667Z,1.90
2023-02-25T02:48:31.904Z,2.55
2023-02-25T02:50:58.822Z,2.00
2023-02-25T02:53:25.784Z,1.90
2023-02-25T02:55:52.714Z,1.80
2023-02-25T02:58:29.969Z,1.70
2023-02-25T03:00:56.894Z,1.88
2023-02-25T03:03:23.813Z,1.85
2023-02-25T03:05:50.702Z,1.95
2023-02-25T03:08:17.682Z,1.70
2023-02-25T03:10:44.589Z,1.75
2023-02-25T03:13:11.569Z,1.60
2023-02-25T03:15:38.479Z,1.70
2023-02-25T03:18:05.405Z,1.83
2023-02-25T03:20:32.341Z,1.70
2023-02-25T03:22:59.298Z,1.60
2023-02-25T03:25:26.262Z,1.70
2023-02-25T03:27:53.453Z,2.00
2023-02-25T03:30:20.436Z,2.00
2023-02-25T03:32:47.445Z,1.85
2023-02-25T03:35:14.475Z,1.40
2023-02-25T03:37:41.370Z,1.95
2023-02-25T03:40:08.292Z,1.70
2023-02-25T03:42:35.199Z,1.70
2023-02-25T03:45:03.138Z,1.52
2023-02-25T03:47:30.050Z,1.70
2023-02-25T03:49:56.981Z,1.40
2023-02-25T03:52:23.870Z,1.35
2023-02-25T03:54:50.793Z,1.35
2023-02-25T03:57:17.712Z,1.70
2023-02-25T03:59:44.646Z,1.58
2023-02-25T04:02:11.645Z,1.48
2023-02-25T04:04:38.656Z,1.42
2023-02-25T04:07:05.559Z,1.88
2023-02-25T04:09:32.482Z,1.50
2023-02-25T04:11:59.378Z,1.70
2023-02-25T04:14:26.667Z,1.67
2023-02-25T04:16:53.696Z,1.80
2023-02-25T04:19:20.642Z,1.85
2023-02-25T04:21:47.567Z,1.45
2023-02-25T04:24:14.514Z,1.80
2023-02-25T04:26:41.660Z,1.55
2023-02-25T04:29:08.588Z,1.85
2023-02-25T04:31:35.598Z,1.40
2023-02-25T04:34:02.627Z,1.70
2023-02-25T04:36:29.546Z,1.63
2023-02-25T04:38:56.497Z,1.58
2023-02-25T04:41:23.417Z,1.58
2023-02-25T04:43:50.315Z,1.60
2023-02-25T04:46:17.256Z,1.70
2023-02-25T04:48:44.186Z,1.52
2023-02-25T04:51:11.094Z,1.30
2023-02-25T04:53:38.039Z,1.60
2023-02-25T04:56:04.954Z,1.60
2023-02-25T04:58:31.888Z,1.60
2023-02-25T05:00:58.800Z,1.60
2023-02-25T05:03:25.718Z,1.48
2023-02-25T05:05:52.639Z,1.30
2023-02-25T05:08:19.778Z,1.63
2023-02-25T05:10:46.697Z,1.75
2023-02-25T05:13:13.736Z,1.40
2023-02-25T05:15:40.668Z,1.35
2023-02-25T05:18:07.586Z,1.73
2023-02-25T05:20:34.581Z,1.65
2023-02-25T05:23:01.524Z,1.40
2023-02-25T05:25:28.492Z,1.40
2023-02-25T05:27:55.380Z,1.50
2023-02-25T05:30:22.317Z,1.50
2023-02-25T05:32:49.445Z,1.50
2023-02-25T05:35:16.733Z,1.48
2023-02-25T05:37:43.646Z,1.10
2023-02-25T05:40:10.584Z,1.45
2023-02-25T05:42:37.482Z,1.13
2023-02-25T05:45:04.814Z,1.77
2023-02-25T05:47:31.788Z,1.75
2023-02-25T05:49:58.690Z,1.45
2023-02-25T05:52:25.608Z,1.40
2023-02-25T05:54:52.538Z,1.20
2023-02-25T05:57:19.452Z,1.08
2023-02-25T05:59:46.396Z,1.35
2023-02-25T06:02:13.405Z,1.58
2023-02-25T06:04:40.381Z,1.30
2023-02-25T06:07:07.352Z,1.42
2023-02-25T06:09:34.298Z,1.40
2023-02-25T06:12:01.207Z,1.48
2023-02-25T06:14:28.139Z,1.80
2023-02-25T06:16:55.104Z,1.15
2023-02-25T06:19:22.051Z,1.27
2023-02-25T06:21:48.941Z,1.70
2023-02-25T06:24:15.869Z,1.48
2023-02-25T06:26:42.811Z,1.42
2023-02-25T06:29:09.745Z,1.65
2023-02-25T06:31:36.804Z,1.30
2023-02-25T06:34:03.740Z,1.60
2023-02-25T06:36:30.820Z,1.42
2023-02-25T06:38:57.755Z,1.45
2023-02-25T06:41:24.657Z,1.40
2023-02-25T06:43:53.198Z,1.42
2023-02-25T06:46:20.171Z,1.13
2023-02-25T06:48:47.124Z,1.20
2023-02-25T06:51:14.025Z,1.17
2023-02-25T06:53:40.903Z,1.35
2023-02-25T06:56:07.809Z,1.33
2023-02-25T06:58:34.757Z,1.63
2023-02-25T07:01:01.755Z,1.42
2023-02-25T07:03:28.681Z,1.65
2023-02-25T07:05:55.582Z,1.33
2023-02-25T07:08:22.612Z,1.67
2023-02-25T07:10:49.556Z,1.67
2023-02-25T07:13:16.468Z,1.20
2023-02-25T07:15:43.448Z,1.75
2023-02-25T07:18:10.406Z,1.45
2023-02-25T07:20:41.443Z,1.60
2023-02-25T07:23:08.447Z,1.70
2023-02-25T07:25:35.529Z,1.50
2023-02-25T07:28:02.446Z,1.73
2023-02-25T07:30:29.380Z,1.50
2023-02-25T07:32:56.306Z,2.03
2023-02-25T07:35:23.279Z,1.50
2023-02-25T07:37:50.175Z,1.13
2023-02-25T07:40:17.080Z,1.20
2023-02-25T07:42:44.223Z,1.50
2023-02-25T07:45:12.096Z,2.03
2023-02-25T07:47:39.031Z,2.00
2023-02-25T07:50:05.944Z,2.05
2023-02-25T07:52:32.886Z,1.80
2023-02-25T07:55:03.066Z,1.20
2023-02-25T10:20:29.919Z,2.08
2023-02-25T10:22:59.138Z,2.70
2023-02-25T10:25:26.075Z,2.22
2023-02-25T10:27:53.311Z,2.20
2023-02-25T10:30:20.500Z,2.55
2023-02-25T10:32:47.714Z,2.25
2023-02-25T10:35:14.738Z,1.80
2023-02-25T10:37:41.681Z,2.10
2023-02-25T10:40:08.654Z,2.13
2023-02-25T10:42:35.564Z,1.77
2023-02-25T10:45:02.512Z,1.92
2023-02-25T10:47:29.397Z,1.92
2023-02-25T10:49:56.334Z,1.70
2023-02-25T10:52:23.263Z,2.00
2023-02-25T10:54:50.180Z,1.80
2023-02-25T10:57:17.210Z,2.47
2023-02-25T10:59:44.223Z,1.73
2023-02-25T11:02:11.319Z,1.95
2023-02-25T11:04:38.251Z,1.75
2023-02-25T11:07:05.248Z,2.05
2023-02-25T11:09:32.214Z,1.88
2023-02-25T11:11:59.144Z,1.75
2023-02-25T11:14:28.541Z,1.80
2023-02-25T11:16:57.624Z,1.70
2023-02-25T11:24:56.880Z,1.90
2023-02-25T11:27:23.807Z,2.03
2023-02-25T11:29:50.748Z,2.20
2023-02-25T11:32:17.787Z,2.00
2023-02-25T11:34:44.732Z,2.05
2023-02-25T11:37:11.669Z,2.10
2023-02-25T11:39:38.735Z,2.97
2023-02-25T11:42:05.745Z,2.15
2023-02-25T11:44:32.759Z,2.03
2023-02-25T11:46:59.746Z,2.20
2023-02-25T11:49:26.733Z,1.83
2023-02-25T11:51:53.931Z,2.05
2023-02-25T11:54:22.601Z,2.03
2023-02-25T11:56:49.578Z,1.92
2023-02-25T11:59:16.539Z,1.92
2023-02-25T12:01:43.537Z,1.85
2023-02-25T12:04:10.502Z,1.70
2023-02-25T12:06:37.409Z,1.90
2023-02-25T12:09:04.497Z,2.20
2023-02-25T12:11:31.497Z,2.20
2023-02-25T12:13:58.512Z,1.90
2023-02-25T12:16:29.287Z,2.10
2023-02-25T12:18:56.261Z,2.35
2023-02-25T12:21:23.584Z,2.15
2023-02-25T12:29:39.809Z,1.98
2023-02-25T12:32:06.969Z,2.00
2023-02-25T12:34:36.281Z,2.40
2023-02-25T12:37:03.397Z,2.03
2023-02-25T12:39:30.365Z,1.80
2023-02-25T12:41:57.311Z,2.20
2023-02-25T12:44:24.287Z,2.30
2023-02-25T12:46:51.229Z,1.90
2023-02-25T12:49:18.420Z,1.92
2023-02-25T12:51:45.376Z,2.10
2023-02-25T12:54:12.513Z,2.40
2023-02-25T12:56:39.439Z,2.22
2023-02-25T12:59:06.379Z,2.78
2023-02-25T13:01:33.591Z,2.10
2023-02-25T13:04:06.635Z,2.17
2023-02-25T13:06:33.605Z,2.42
2023-02-25T13:09:01.308Z,3.28
2023-02-25T13:11:28.750Z,2.20
2023-02-25T13:14:04.237Z,2.10
2023-02-25T13:19:17.043Z,2.90
2023-02-25T13:21:44.082Z,2.38
2023-02-25T13:24:11.024Z,1.88
2023-02-25T13:26:38.007Z,2.20
2023-02-25T13:29:05.112Z,2.42
2023-02-25T13:31:32.161Z,1.98
2023-02-25T13:33:59.167Z,2.25
2023-02-25T13:36:26.502Z,2.72
2023-02-25T13:38:53.435Z,1.80
2023-02-25T13:41:20.814Z,1.70
2023-02-25T13:43:47.843Z,2.20
2023-02-25T13:46:15.315Z,2.10
2023-02-25T13:48:42.278Z,2.20
2023-02-25T13:51:09.249Z,1.73
2023-02-25T13:53:36.146Z,1.90
2023-02-25T13:56:05.312Z,2.00
2023-02-25T13:58:33.375Z,1.95
2023-02-25T14:01:03.549Z,2.17
2023-02-25T14:06:21.686Z,2.47
2023-02-25T14:08:48.636Z,1.95
2023-02-25T14:11:15.610Z,2.30
2023-02-25T14:13:42.542Z,2.30
2023-02-25T14:16:12.005Z,2.10
2023-02-25T14:18:39.013Z,2.38
2023-02-25T14:21:05.966Z,1.92
2023-02-25T14:23:32.926Z,1.90
2023-02-25T14:25:59.906Z,2.00
2023-02-25T14:28:26.857Z,2.10
2023-02-25T14:30:53.834Z,2.00
2023-02-25T14:33:20.855Z,1.90
2023-02-25T14:35:47.809Z,2.10
2023-02-25T14:38:16.280Z,2.08
2023-02-25T14:40:43.291Z,1.83
2023-02-25T14:43:10.280Z,1.83
2023-02-25T14:45:37.227Z,1.90
2023-02-25T14:48:04.211Z,2.30
2023-02-25T14:50:31.431Z,2.10
2023-02-25T14:52:58.422Z,1.92
2023-02-25T14:55:25.401Z,2.13
2023-02-25T14:57:52.484Z,2.00
2023-02-25T15:00:19.486Z,1.98
2023-02-25T15:02:46.537Z,2.08
2023-02-25T15:05:15.452Z,2.15
2023-02-25T15:07:43.380Z,2.10
2023-02-25T15:10:10.275Z,2.05
2023-02-25T15:12:37.234Z,2.25
2023-02-25T15:15:04.181Z,1.98
2023-02-25T15:17:31.196Z,1.80
2023-02-25T15:19:58.093Z,2.15
2023-02-25T15:22:25.295Z,2.55
2023-02-25T15:24:52.236Z,1.95
2023-02-25T15:27:19.158Z,2.17
2023-02-25T15:29:46.145Z,2.42
2023-02-25T15:32:13.239Z,2.13
2023-02-25T15:34:40.220Z,2.28
2023-02-25T15:37:08.178Z,2.45
2023-02-25T15:39:35.199Z,2.33
2023-02-25T15:42:02.124Z,2.17
2023-02-25T15:44:29.054Z,3.60
2023-02-25T15:46:56.036Z,3.10
2023-02-25T15:49:22.966Z,2.90
2023-02-25T15:51:51.160Z,2.78
2023-02-25T15:54:18.100Z,3.17
2023-02-25T15:56:44.999Z,3.50
2023-02-25T15:59:11.962Z,2.95
2023-02-25T16:01:38.956Z,2.88
2023-02-25T16:04:12.045Z,3.33
2023-02-25T16:06:38.981Z,3.97
2023-02-25T16:09:13.289Z,2.70
2023-02-25T16:11:40.461Z,2.78
2023-02-25T16:14:07.372Z,3.28
2023-02-25T16:16:34.587Z,3.10
2023-02-25T16:19:01.585Z,2.53
2023-02-25T16:21:28.595Z,2.08
2023-02-25T16:23:55.576Z,2.50
2023-02-25T16:26:22.478Z,3.10
2023-02-25T16:28:49.422Z,2.70
2023-02-25T16:31:16.369Z,2.88
2023-02-25T16:33:43.301Z,3.08
2023-02-25T16:36:10.246Z,2.90
2023-02-25T16:38:38.272Z,2.70
2023-02-25T16:43:58.110Z,2.33
2023-02-25T16:46:29.294Z,1.98
2023-02-25T16:48:56.367Z,2.10
2023-02-25T16:51:23.649Z,2.13
2023-02-25T16:53:50.809Z,2.55
2023-02-25T16:56:17.711Z,2.50
2023-02-25T16:58:44.658Z,2.40
2023-02-25T17:01:11.615Z,2.10
2023-02-25T17:03:38.672Z,1.90
2023-02-25T17:06:05.596Z,2.00
2023-02-25T17:08:32.521Z,3.05
2023-02-25T17:11:08.949Z,2.83
2023-02-25T17:13:35.966Z,2.80
2023-02-25T17:16:02.895Z,2.55
2023-02-25T17:18:29.853Z,2.30
2023-02-25T17:20:56.764Z,2.70
2023-02-25T17:23:23.733Z,2.72
2023-02-25T17:25:50.685Z,2.55
2023-02-25T17:28:17.642Z,2.90
2023-02-25T17:30:44.613Z,1.98
2023-02-25T17:33:11.593Z,2.00
2023-02-25T17:35:38.535Z,1.95
2023-02-25T17:38:05.479Z,2.00
2023-02-25T17:40:32.386Z,2.20
2023-02-25T17:42:59.313Z,1.85
2023-02-25T17:45:26.232Z,2.20
2023-02-25T17:47:53.395Z,1.98
2023-02-25T17:50:20.432Z,1.58
2023-02-25T17:52:47.357Z,2.45
2023-02-25T17:55:14.249Z,2.10
2023-02-25T18:00:23.247Z,1.77
2023-02-25T18:02:50.375Z,2.35
2023-02-25T18:05:21.619Z,1.63
2023-02-25T18:10:20.554Z,1.55
2023-02-25T18:12:47.509Z,1.67
2023-02-25T18:15:14.411Z,1.92
2023-02-25T18:17:41.339Z,1.98
2023-02-25T18:20:08.354Z,2.10
2023-02-25T18:22:35.467Z,2.10
2023-02-25T18:25:02.374Z,2.05
2023-02-25T18:27:29.274Z,2.08
2023-02-25T18:29:56.201Z,2.13
2023-02-25T18:32:23.132Z,2.50
2023-02-25T18:34:50.064Z,2.50
2023-02-25T18:37:21.428Z,2.80
2023-02-25T18:39:48.417Z,2.70
2023-02-25T18:42:15.329Z,2.00
2023-02-25T18:44:42.273Z,2.38
2023-02-25T18:47:09.189Z,2.20
2023-02-25T18:49:36.101Z,2.70
2023-02-25T18:52:02.997Z,2.55
2023-02-25T18:54:29.932Z,3.00
2023-02-25T18:56:56.843Z,2.40
2023-02-25T18:59:23.791Z,2.85
2023-02-25T19:01:50.814Z,2.80
2023-02-25T19:04:17.779Z,2.80
2023-02-25T19:06:44.688Z,2.85
2023-02-25T19:09:11.617Z,2.70
2023-02-25T19:11:38.560Z,3.10
2023-02-25T19:14:05.495Z,3.08
2023-02-25T19:16:32.428Z,2.83
2023-02-25T19:18:59.438Z,3.28
2023-02-25T19:21:26.358Z,3.00
2023-02-25T19:23:53.287Z,3.33
2023-02-25T19:26:20.217Z,3.63
2023-02-25T19:28:47.183Z,3.47
2023-02-25T19:31:14.301Z,3.20
2023-02-25T19:33:41.310Z,3.20
2023-02-25T19:36:08.202Z,3.13
2023-02-25T19:38:35.128Z,3.22
2023-02-25T19:41:02.028Z,2.92
2023-02-25T19:43:28.954Z,2.70
2023-02-25T19:45:55.876Z,2.88
2023-02-25T19:48:22.770Z,3.30
2023-02-25T20:35:26.463Z,2.92
2023-02-25T20:37:57.697Z,2.40
2023-02-25T20:42:53.764Z,2.35
2023-02-25T20:45:20.819Z,2.63
2023-02-25T20:47:47.953Z,2.90
2023-02-25T20:50:15.089Z,3.30
2023-02-25T20:52:46.590Z,3.03
2023-02-25T20:55:17.886Z,3.03
2023-02-25T21:02:53.960Z,2.70
2023-02-25T21:05:24.016Z,2.75
2023-02-25T21:07:51.826Z,2.70
2023-02-25T21:10:19.028Z,3.25
2023-02-25T21:12:46.157Z,3.30
2023-02-25T21:15:15.665Z,2.42
2023-02-25T21:17:42.603Z,2.85
2023-02-25T21:20:09.599Z,2.80
2023-02-25T21:22:36.693Z,2.92
2023-02-25T21:25:03.818Z,2.67
2023-02-25T21:27:30.810Z,2.45
2023-02-25T21:29:57.766Z,2.80
2023-02-25T21:32:27.555Z,2.20
2023-02-25T21:34:54.504Z,2.42
2023-02-25T21:37:21.622Z,2.50
2023-02-25T21:39:48.620Z,2.30
2023-02-25T21:42:15.624Z,2.53
2023-02-25T21:44:42.550Z,2.05
2023-02-25T21:47:09.503Z,2.35
2023-02-25T21:49:36.447Z,1.98
2023-02-25T21:52:03.395Z,2.10
2023-02-25T21:54:36.100Z,2.28
2023-02-25T21:57:03.013Z,2.10
2023-02-25T21:59:29.970Z,2.20
2023-02-25T22:02:00.821Z,2.50
2023-02-25T22:04:27.976Z,2.17
2023-02-25T22:06:58.311Z,2.15
2023-02-25T22:09:28.137Z,2.03
2023-02-25T22:11:55.061Z,2.45
2023-02-25T22:14:23.275Z,2.05
2023-02-25T22:16:50.194Z,2.08
2023-02-25T22:19:18.465Z,1.90
2023-02-25T22:21:45.408Z,2.38
2023-02-25T22:24:12.400Z,1.80
2023-02-25T22:26:39.395Z,1.60
2023-02-25T22:29:06.487Z,1.67
2023-02-25T22:31:33.634Z,1.90
2023-02-25T22:34:00.701Z,1.80
2023-02-25T22:36:28.013Z,1.85
2023-02-25T22:38:55.144Z,1.90
2023-02-25T22:41:23.329Z,1.65
2023-02-25T22:43:50.277Z,1.90
2023-02-25T23:00:08.906Z,1.40
2023-02-25T23:03:05.661Z,1.58
2023-02-25T23:25:44.533Z,1.70
